.
WxDataArchive / Data Records for 2016-01-31
2016-01-30 January 2016 2016-02-01

Data Records for Sunday, 31 January 2016

Time	Temp	Chill	HIndex	Humid	Dewpt	 Wind 	HiWind	WindDir	Rain 	Barom
-----	----	-----	------	-----	-----	------	------	-------	-----	-----
00:00	36.6	36.6	36.6	89	33.7	0	0	---	0.00	29.724 
00:05	36.8	36.8	36.8	89	33.9	0	1	248	0.00	29.724 
00:10	36.9	36.9	36.9	90	34.2	0	0	---	0.00	29.724 
00:15	37.0	37.0	37.0	90	34.3	0	0	---	0.00	29.721 
00:20	37.3	37.3	37.3	90	34.6	0	0	---	0.00	29.721 
00:25	37.8	37.8	37.8	90	35.1	0	0	---	0.00	29.721 
00:30	37.9	37.9	37.9	90	35.2	0	0	---	0.00	29.721 
00:35	38.0	38.0	38.0	89	35.1	0	0	---	0.00	29.721 
00:40	38.2	38.2	38.2	89	35.2	0	0	---	0.00	29.721 
00:45	38.3	38.3	38.3	89	35.3	0	0	---	0.00	29.725 
00:50	38.3	38.3	38.3	89	35.3	0	0	---	0.00	29.725 
00:55	38.3	38.3	38.3	89	35.3	0	0	---	0.00	29.725 
01:00	38.5	38.5	38.5	89	35.5	0	0	---	0.00	29.725 
01:05	38.5	38.5	38.5	89	35.5	0	0	---	0.00	29.725 
01:10	38.5	38.5	38.5	89	35.5	0	0	---	0.00	29.725 
01:15	38.6	38.6	38.6	88	35.4	0	0	---	0.00	29.717 
01:20	38.6	38.6	38.6	88	35.4	0	0	---	0.00	29.717 
01:25	38.6	38.6	38.6	88	35.4	0	0	---	0.00	29.717 
01:30	38.8	38.8	38.8	88	35.6	0	0	---	0.00	29.718 
01:35	38.9	38.9	38.9	88	35.7	0	0	---	0.00	29.718 
01:40	38.9	38.9	38.9	88	35.7	0	0	---	0.00	29.718 
01:45	39.1	39.1	39.1	88	35.9	0	0	---	0.00	29.716 
01:50	39.2	39.2	39.2	88	35.9	0	0	---	0.00	29.716 
01:55	39.2	39.2	39.2	88	35.9	0	0	---	0.00	29.716 
02:00	39.2	39.2	39.2	87	35.7	0	0	---	0.00	29.708 
02:05	39.2	39.2	39.2	87	35.7	0	0	---	0.00	29.708 
02:10	39.3	39.3	39.3	87	35.8	0	0	---	0.00	29.708 
02:15	39.3	39.3	39.3	87	35.8	0	0	---	0.00	29.702 
02:20	39.5	39.5	39.5	87	36.0	0	0	---	0.00	29.702 
02:25	39.5	39.5	39.5	87	36.0	0	0	---	0.00	29.702 
02:30	39.5	39.5	39.5	87	36.0	0	0	---	0.00	29.708 
02:35	39.5	39.5	39.5	86	35.7	0	0	---	0.00	29.708 
02:40	39.3	39.3	39.3	86	35.5	0	0	---	0.00	29.708 
02:45	39.3	39.3	39.3	87	35.8	0	0	---	0.00	29.707 
02:50	39.5	39.5	39.5	86	35.7	0	0	---	0.00	29.707 
02:55	39.5	39.5	39.5	86	35.7	0	0	---	0.00	29.707 
03:00	39.5	39.5	39.5	85	35.4	0	0	---	0.00	29.696 
03:05	39.3	39.3	39.3	85	35.2	0	0	---	0.00	29.696 
03:10	39.1	39.1	39.1	85	35.0	0	0	---	0.00	29.696 
03:15	38.8	38.8	38.8	86	35.0	0	0	---	0.00	29.683 
03:20	38.6	38.6	38.6	86	34.8	0	0	---	0.00	29.683 
03:25	38.3	38.3	38.3	86	34.5	0	0	---	0.00	29.683 
03:30	38.2	38.2	38.2	86	34.4	0	0	---	0.00	29.691 
03:35	38.0	38.0	38.0	86	34.2	0	0	---	0.00	29.691 
03:40	37.8	37.8	37.8	86	34.0	0	0	---	0.00	29.691 
03:45	37.3	37.3	37.3	87	33.8	0	0	---	0.00	29.675 
03:50	37.2	37.2	37.2	87	33.7	0	0	---	0.00	29.675 
03:55	37.0	37.0	37.0	88	33.8	0	0	---	0.00	29.675 
04:00	36.9	36.9	36.9	88	33.7	0	0	---	0.00	29.682 
04:05	36.8	36.8	36.8	88	33.6	0	0	---	0.00	29.682 
04:10	36.5	36.5	36.5	88	33.3	0	0	---	0.00	29.682 
04:15	36.3	36.3	36.3	88	33.1	0	0	---	0.00	29.686 
04:20	36.2	36.2	36.2	88	33.0	0	0	---	0.00	29.686 
04:25	36.0	36.0	36.0	88	32.8	0	0	---	0.00	29.686 
04:30	36.0	36.0	36.0	89	33.1	0	0	---	0.00	29.684 
04:35	35.9	35.9	35.9	89	33.0	0	0	---	0.00	29.684 
04:40	35.9	35.9	35.9	89	33.0	0	0	---	0.00	29.684 
04:45	35.9	35.9	35.9	89	33.0	0	0	---	0.00	29.684 
04:50	35.8	35.8	35.8	89	32.9	0	0	---	0.00	29.684 
04:55	35.9	35.9	35.9	90	33.3	0	0	---	0.00	29.684 
05:00	36.0	36.0	36.0	90	33.4	0	0	---	0.00	29.683 
05:05	36.2	36.2	36.2	90	33.6	0	0	---	0.00	29.683 
05:10	36.3	36.3	36.3	90	33.7	0	0	---	0.00	29.683 
05:15	36.3	36.3	36.3	90	33.7	0	0	---	0.00	29.684 
05:20	36.3	36.3	36.3	90	33.7	0	0	---	0.00	29.684 
05:25	36.5	36.5	36.5	90	33.9	0	0	---	0.00	29.684 
05:30	36.5	36.5	36.5	90	33.9	0	0	---	0.00	29.671 
05:35	36.5	36.5	36.5	91	34.1	0	0	---	0.00	29.671 
05:40	36.6	36.6	36.6	91	34.2	0	0	---	0.00	29.671 
05:45	36.8	36.8	36.8	91	34.4	0	0	---	0.00	29.668 
05:50	36.8	36.8	36.8	91	34.4	0	0	---	0.00	29.668 
05:55	36.9	36.9	36.9	91	34.5	0	1	248	0.00	29.668 
06:00	37.0	37.0	37.0	91	34.6	0	0	---	0.00	29.657 
06:05	37.3	37.3	37.3	91	34.9	0	0	---	0.00	29.657 
06:10	37.5	37.5	37.5	91	35.1	0	0	---	0.00	29.657 
06:15	37.6	37.6	37.6	91	35.2	0	0	---	0.00	29.660 
06:20	37.8	37.8	37.8	90	35.1	0	0	---	0.00	29.660 
06:25	37.8	37.8	37.8	90	35.1	0	0	---	0.00	29.660 
06:30	37.8	37.8	37.8	90	35.1	0	0	---	0.00	29.662 
06:35	37.9	37.9	37.9	90	35.2	0	0	---	0.00	29.662 
06:40	38.0	38.0	38.0	90	35.3	0	0	---	0.00	29.662 
06:45	38.0	38.0	38.0	90	35.3	0	0	---	0.00	29.659 
06:50	38.2	38.2	38.2	90	35.5	0	0	---	0.00	29.659 
06:55	38.2	38.2	38.2	90	35.5	0	0	---	0.00	29.659 
07:00	38.3	38.3	38.3	90	35.6	0	1	248	0.00	29.652 
07:05	38.5	38.5	38.5	90	35.8	0	0	---	0.00	29.652 
07:10	38.8	38.8	38.8	89	35.8	0	0	---	0.00	29.652 
07:15	38.9	38.9	38.9	89	35.9	0	1	248	0.00	29.658 
07:20	39.2	39.2	39.2	89	36.2	0	1	248	0.00	29.658 
07:25	39.5	39.5	39.5	89	36.5	0	1	248	0.00	29.658 
07:30	39.8	39.8	39.8	89	36.8	0	1	248	0.00	29.654 
07:35	40.2	40.2	40.2	89	37.2	0	1	248	0.00	29.654 
07:40	40.6	40.6	40.6	89	37.6	0	1	248	0.00	29.654 
07:45	41.1	41.1	41.1	89	38.1	0	1	248	0.00	29.651 
07:50	41.5	41.5	41.5	89	38.5	0	0	---	0.00	29.651 
07:55	41.8	41.8	41.8	88	38.5	0	1	248	0.00	29.651 
08:00	41.9	41.9	41.9	88	38.6	0	0	---	0.00	29.649 
08:05	42.2	42.2	42.2	88	38.9	0	1	248	0.00	29.649 
08:10	42.5	42.5	42.5	88	39.2	0	1	248	0.00	29.649 
08:15	42.8	42.8	42.8	87	39.2	0	1	248	0.00	29.647 
08:20	43.1	43.1	43.1	87	39.5	0	2	248	0.00	29.647 
08:25	43.3	43.3	43.3	87	39.7	0	2	248	0.00	29.647 
08:30	43.8	43.8	43.8	86	39.9	0	3	202	0.00	29.645 
08:35	44.1	44.1	44.1	85	39.9	0	2	202	0.00	29.645 
08:40	44.3	44.3	44.3	85	40.1	0	1	202	0.00	29.645 
08:45	44.6	44.6	44.6	84	40.1	0	2	202	0.00	29.645 
08:50	44.9	44.9	44.9	84	40.4	0	2	90	0.00	29.645 
08:55	45.2	45.2	45.2	84	40.7	0	2	90	0.00	29.645 
09:00	45.5	45.5	45.5	83	40.6	0	2	90	0.00	29.640 
09:05	45.8	45.8	45.8	83	40.9	0	2	90	0.00	29.640 
09:10	46.1	46.1	46.1	84	41.5	0	3	90	0.00	29.640 
09:15	46.4	46.4	46.4	83	41.5	1	4	90	0.00	29.637 
09:20	46.7	46.7	46.7	83	41.8	0	3	90	0.00	29.637 
09:25	46.8	46.8	46.8	83	41.9	1	3	90	0.00	29.637 
09:30	47.0	47.0	47.0	83	42.1	0	2	90	0.00	29.628 
09:35	47.1	47.1	47.1	83	42.2	1	3	90	0.00	29.628 
09:40	47.3	47.3	47.3	83	42.4	0	3	90	0.00	29.628 
09:45	47.6	47.6	47.6	82	42.4	1	3	90	0.00	29.626 
09:50	48.0	48.0	48.0	82	42.8	0	2	90	0.00	29.626 
09:55	48.3	48.3	48.3	82	43.1	0	2	90	0.00	29.626 
10:00	48.6	48.6	48.6	82	43.4	0	1	90	0.00	29.625 
10:05	49.1	49.1	49.1	82	43.8	0	4	90	0.00	29.625 
10:10	49.5	49.5	49.5	81	43.9	0	2	90	0.00	29.625 
10:15	49.8	49.8	49.8	81	44.2	0	3	90	0.00	29.627 
10:20	49.9	49.9	49.9	81	44.3	0	2	90	0.00	29.627 
10:25	50.1	50.1	50.1	81	44.5	0	2	90	0.00	29.627 
10:30	50.2	50.2	50.2	81	44.6	0	2	90	0.00	29.623 
10:35	50.5	50.5	50.5	81	44.9	1	3	90	0.00	29.623 
10:40	50.8	50.8	50.8	81	45.2	1	7	90	0.00	29.623 
10:45	51.3	51.3	51.3	81	45.7	1	4	90	0.00	29.615 
10:50	51.6	51.6	51.6	80	45.6	1	4	90	0.00	29.615 
10:55	51.7	51.7	51.7	80	45.7	1	4	90	0.00	29.615 
11:00	52.0	52.0	52.0	80	46.0	1	4	90	0.00	29.612 
11:05	52.5	52.5	52.5	80	46.5	1	5	68	0.00	29.612 
11:10	52.9	52.9	52.9	80	46.9	1	4	68	0.00	29.612 
11:15	53.1	53.1	53.1	79	46.8	2	6	68	0.00	29.589 
11:20	53.1	53.1	53.1	79	46.8	2	6	90	0.00	29.589 
11:25	52.9	52.9	52.9	79	46.6	2	5	112	0.00	29.589 
11:30	52.9	52.9	52.9	79	46.6	2	9	112	0.00	29.582 
11:35	52.8	52.8	52.8	80	46.8	1	5	112	0.00	29.582 
11:40	52.8	52.8	52.8	80	46.8	1	4	90	0.00	29.582 
11:45	52.8	52.8	52.8	81	47.1	1	3	45	0.00	29.574 
11:50	52.8	52.8	52.8	81	47.1	1	3	68	0.00	29.574 
11:55	52.9	52.9	52.9	81	47.2	1	5	90	0.00	29.574 
12:00	53.2	53.2	53.2	81	47.5	1	5	90	0.00	29.568 
12:05	53.3	53.3	53.3	80	47.3	1	4	315	0.00	29.568 
12:10	53.8	53.8	53.8	81	48.1	1	3	45	0.00	29.568 
12:15	54.2	54.2	54.2	80	48.2	1	4	248	0.00	29.563 
12:20	54.5	54.5	54.5	79	48.1	0	3	248	0.00	29.563 
12:25	54.7	54.7	54.7	79	48.3	1	3	248	0.00	29.563 
12:30	54.7	54.7	54.7	79	48.3	1	6	270	0.00	29.557 
12:35	54.7	54.7	54.7	79	48.3	1	4	248	0.00	29.557 
12:40	54.7	54.7	54.7	79	48.3	1	4	270	0.00	29.557 
12:45	54.5	54.5	54.5	79	48.1	1	3	338	0.00	29.552 
12:50	54.5	54.5	54.5	79	48.1	1	9	45	0.00	29.552 
12:55	54.5	54.5	54.5	79	48.1	1	3	22	0.00	29.552 
13:00	54.5	54.5	54.5	80	48.5	1	6	338	0.00	29.545 
13:05	54.5	54.5	54.5	80	48.5	1	5	248	0.00	29.545 
13:10	54.7	54.7	54.7	80	48.7	0	2	248	0.00	29.545 
13:15	54.8	54.8	54.8	80	48.7	1	6	248	0.00	29.534 
13:20	54.8	54.8	54.8	79	48.4	1	10	135	0.00	29.534 
13:25	55.0	55.0	55.0	79	48.6	2	10	248	0.00	29.534 
13:30	55.1	55.1	55.1	79	48.7	1	6	248	0.00	29.526 
13:35	55.1	55.1	55.1	79	48.7	0	3	248	0.00	29.526 
13:40	55.1	55.1	55.1	79	48.7	1	4	248	0.00	29.526 
13:45	55.1	55.1	55.1	79	48.7	1	4	68	0.00	29.519 
13:50	55.1	55.1	55.1	79	48.7	1	5	248	0.00	29.519 
13:55	55.1	55.1	55.1	79	48.7	1	8	248	0.00	29.519 
14:00	55.1	55.1	55.1	79	48.7	1	4	248	0.00	29.521 
14:05	55.1	55.1	55.1	79	48.7	1	5	248	0.00	29.521 
14:10	55.0	55.0	55.0	79	48.6	1	4	248	0.00	29.521 
14:15	55.0	55.0	55.0	79	48.6	1	3	315	0.00	29.520 
14:20	54.8	54.8	54.8	79	48.4	1	5	270	0.00	29.520 
14:25	54.8	54.8	54.8	79	48.4	0	5	248	0.00	29.520 
14:30	54.8	54.8	54.8	79	48.4	0	3	248	0.00	29.513 
14:35	54.7	54.7	54.7	80	48.7	1	3	248	0.00	29.513 
14:40	54.5	54.5	54.5	80	48.5	0	3	248	0.00	29.513 
14:45	54.5	54.5	54.5	80	48.5	1	5	292	0.00	29.507 
14:50	54.4	54.4	54.4	80	48.4	1	5	68	0.00	29.507 
14:55	54.4	54.4	54.4	81	48.7	1	4	270	0.00	29.507 
15:00	54.4	54.4	54.4	81	48.7	0	2	270	0.00	29.500 
15:05	54.4	54.4	54.4	80	48.4	1	5	248	0.00	29.500 
15:10	54.4	54.4	54.4	80	48.4	1	3	248	0.00	29.500 
15:15	54.4	54.4	54.4	80	48.4	0	2	248	0.00	29.505 
15:20	54.4	54.4	54.4	80	48.4	0	2	248	0.00	29.505 
15:25	54.4	54.4	54.4	80	48.4	0	3	270	0.00	29.505 
15:30	54.4	54.4	54.4	80	48.4	0	2	270	0.00	29.502 
15:35	54.2	54.2	54.2	81	48.5	0	2	270	0.00	29.502 
15:40	54.4	54.4	54.4	81	48.7	0	3	270	0.00	29.502 
15:45	54.4	54.4	54.4	81	48.7	0	3	270	0.00	29.507 
15:50	54.4	54.4	54.4	81	48.7	0	2	270	0.00	29.507 
15:55	54.4	54.4	54.4	80	48.4	1	4	270	0.00	29.507 
16:00	54.5	54.5	54.5	80	48.5	0	3	248	0.00	29.507 
16:05	54.5	54.5	54.5	80	48.5	1	3	248	0.00	29.507 
16:10	54.5	54.5	54.5	80	48.5	1	4	248	0.00	29.507 
16:15	54.7	54.7	54.7	80	48.7	0	3	248	0.00	29.513 
16:20	54.7	54.7	54.7	80	48.7	0	3	270	0.00	29.513 
16:25	54.8	54.8	54.8	80	48.7	0	2	270	0.00	29.513 
16:30	54.7	54.7	54.7	80	48.7	0	1	270	0.00	29.525 
16:35	54.7	54.7	54.7	80	48.7	0	3	270	0.00	29.525 
16:40	54.7	54.7	54.7	80	48.7	0	2	270	0.00	29.525 
16:45	54.5	54.5	54.5	81	48.8	0	3	270	0.00	29.526 
16:50	54.5	54.5	54.5	81	48.8	0	1	270	0.00	29.526 
16:55	54.4	54.4	54.4	81	48.7	0	2	270	0.00	29.526 
17:00	54.4	54.4	54.4	81	48.7	0	2	270	0.00	29.527 
17:05	54.4	54.4	54.4	81	48.7	0	5	248	0.00	29.527 
17:10	54.4	54.4	54.4	81	48.7	0	2	248	0.00	29.527 
17:15	54.2	54.2	54.2	81	48.5	0	2	248	0.00	29.526 
17:20	54.2	54.2	54.2	81	48.5	0	1	248	0.00	29.526 
17:25	54.2	54.2	54.2	81	48.5	0	2	248	0.00	29.526 
17:30	54.2	54.2	54.2	81	48.5	1	3	248	0.00	29.530 
17:35	54.2	54.2	54.2	81	48.5	0	2	248	0.00	29.530 
17:40	54.2	54.2	54.2	81	48.5	0	2	248	0.00	29.530 
17:45	54.2	54.2	54.2	81	48.5	0	1	248	0.00	29.528 
17:50	54.1	54.1	54.1	81	48.4	0	2	248	0.00	29.528 
17:55	54.1	54.1	54.1	81	48.4	0	2	248	0.00	29.528 
18:00	54.1	54.1	54.1	81	48.4	0	2	248	0.00	29.528 
18:05	54.1	54.1	54.1	81	48.4	0	1	248	0.00	29.528 
18:10	54.1	54.1	54.1	81	48.4	0	4	112	0.00	29.528 
18:15	54.1	54.1	54.1	82	48.7	0	3	135	0.00	29.533 
18:20	54.1	54.1	54.1	82	48.7	0	2	248	0.00	29.533 
18:25	53.9	53.9	53.9	82	48.5	0	1	248	0.00	29.533 
18:30	54.1	54.1	54.1	82	48.7	1	3	248	0.00	29.539 
18:35	54.2	54.2	54.2	82	48.8	1	4	248	0.00	29.539 
18:40	54.2	54.2	54.2	81	48.5	1	4	248	0.00	29.539 
18:45	54.4	54.4	54.4	81	48.7	0	2	248	0.00	29.547 
18:50	54.4	54.4	54.4	81	48.7	1	3	248	0.00	29.547 
18:55	54.4	54.4	54.4	81	48.7	1	3	248	0.00	29.547 
19:00	54.4	54.4	54.4	81	48.7	1	3	270	0.00	29.546 
19:05	54.5	54.5	54.5	81	48.8	1	4	248	0.00	29.546 
19:10	54.7	54.7	54.7	81	49.0	1	4	248	0.00	29.546 
19:15	54.8	54.8	54.8	81	49.1	1	3	270	0.00	29.547 
19:20	54.8	54.8	54.8	81	49.1	1	5	292	0.00	29.547 
19:25	55.1	55.1	55.1	81	49.4	1	5	270	0.00	29.547 
19:30	55.3	55.3	55.3	81	49.6	2	6	248	0.00	29.548 
19:35	55.6	55.6	55.6	80	49.5	1	5	248	0.00	29.548 
19:40	55.7	55.7	55.7	81	50.0	2	6	248	0.00	29.548 
19:45	55.4	55.4	55.4	83	50.3	4	7	292	0.01	29.579 
19:50	54.4	54.4	54.4	84	49.7	3	6	270	0.01	29.579 
19:55	53.5	53.5	53.5	86	49.4	3	6	248	0.00	29.579 
20:00	52.8	52.8	52.8	87	49.0	3	7	270	0.00	29.582 
20:05	52.0	52.0	52.0	87	48.3	3	7	292	0.00	29.582 
20:10	51.6	51.6	51.6	88	48.2	3	6	292	0.00	29.582 
20:15	51.4	51.4	51.4	88	48.0	2	5	248	0.00	29.583 
20:20	51.3	51.3	51.3	88	47.9	1	4	270	0.00	29.583 
20:25	51.1	51.1	51.1	88	47.7	1	3	270	0.00	29.583 
20:30	51.0	51.0	51.0	89	47.9	1	5	270	0.00	29.594 
20:35	50.8	50.8	50.8	89	47.7	1	3	270	0.00	29.594 
20:40	50.5	50.5	50.5	89	47.4	2	5	270	0.00	29.594 
20:45	50.4	50.4	50.4	89	47.3	2	4	270	0.00	29.611 
20:50	50.1	50.1	50.1	89	47.0	2	5	292	0.00	29.611 
20:55	49.9	49.9	49.9	89	46.8	1	4	292	0.00	29.611 
21:00	49.6	49.6	49.6	89	46.5	1	3	292	0.00	29.616 
21:05	49.5	49.5	49.5	89	46.4	1	3	270	0.00	29.616 
21:10	49.4	49.4	49.4	89	46.3	2	4	270	0.00	29.616 
21:15	49.2	49.2	49.2	89	46.1	1	4	292	0.00	29.621 
21:20	49.1	49.1	49.1	89	46.0	1	3	292	0.00	29.621 
21:25	48.9	48.9	48.9	88	45.5	1	3	292	0.00	29.621 
21:30	48.8	48.8	48.8	88	45.4	2	3	292	0.00	29.629 
21:35	48.6	48.6	48.6	88	45.2	1	3	292	0.00	29.629 
21:40	48.5	48.5	48.5	88	45.1	2	4	292	0.00	29.629 
21:45	48.5	48.5	48.5	88	45.1	1	3	292	0.00	29.642 
21:50	48.3	48.3	48.3	88	44.9	1	3	292	0.00	29.642 
21:55	48.2	48.2	48.2	88	44.8	1	2	292	0.00	29.642 
22:00	48.0	48.0	48.0	88	44.6	1	3	292	0.00	29.648 
22:05	48.0	48.0	48.0	88	44.6	1	2	292	0.00	29.648 
22:10	47.9	47.9	47.9	88	44.5	1	3	292	0.00	29.648 
22:15	47.7	47.7	47.7	88	44.3	1	3	292	0.00	29.649 
22:20	47.4	47.4	47.4	87	43.7	3	9	292	0.00	29.649 
22:25	47.0	47.0	47.0	86	43.0	3	7	270	0.00	29.649 
22:30	46.5	44.8	46.5	86	42.5	4	7	270	0.00	29.671 
22:35	46.1	44.4	46.1	86	42.1	4	7	292	0.00	29.671 
22:40	45.8	44.0	45.8	86	41.9	4	10	270	0.00	29.671 
22:45	45.5	43.7	45.5	86	41.6	4	6	270	0.00	29.681 
22:50	45.1	45.1	45.1	86	41.2	3	7	292	0.00	29.681 
22:55	44.8	44.8	44.8	87	41.2	3	7	270	0.00	29.681 
23:00	44.3	42.3	44.3	87	40.7	4	13	315	0.00	29.697 
23:05	43.8	41.7	43.8	87	40.2	4	6	270	0.00	29.697 
23:10	43.3	43.3	43.3	88	40.0	3	6	292	0.00	29.697 
23:15	43.1	43.1	43.1	88	39.8	3	7	270	0.00	29.708 
23:20	42.8	42.8	42.8	88	39.5	3	4	292	0.00	29.708 
23:25	42.6	42.6	42.6	88	39.3	2	4	292	0.00	29.708 
23:30	42.5	42.5	42.5	88	39.2	2	6	270	0.00	29.717 
23:35	42.3	42.3	42.3	92	40.1	2	7	292	0.00	29.717 
23:40	41.9	41.9	41.9	88	38.6	3	14	315	0.00	29.717 
23:45	41.8	39.4	41.8	87	38.2	4	13	270	0.00	29.726 
23:50	41.6	41.6	41.6	87	38.0	3	13	248	0.00	29.726 
23:55	41.3	38.0	41.3	87	37.7	5	10	292	0.00	29.726 

CoCoRaHS
IN-AL-39
A2 Web Hosting
Creative Commons License
GoDaddy
search engine by freefind advanced

loaded 2018-11-17 14:33:08 • last modified 2010-11-18 10:43:29
Privacy PolicyDisclaimer
• wx.awcolley.com is powered by PmWiki v.2002016 •
• all content (unless otherwise noted) © 2018 A W Colley